sensor_id;sensor_type;location;lat;lon;timestamp;pressure;altitude;pressure_sealevel;temperature;humidity
73671;BME280;61968;48.178;11.566;2022-07-21T00:02:26;96059.81;;;24.53;34.86
73671;BME280;61968;48.178;11.566;2022-07-21T00:04:52;96059.47;;;24.55;34.71
73671;BME280;61968;48.178;11.566;2022-07-21T00:07:19;96077.91;;;24.53;34.66
73671;BME280;61968;48.178;11.566;2022-07-21T00:09:46;96073.63;;;24.52;34.86
73671;BME280;61968;48.178;11.566;2022-07-21T00:12:12;96076.38;;;24.60;35.33
73671;BME280;61968;48.178;11.566;2022-07-21T00:14:40;96078.88;;;24.48;35.23
73671;BME280;61968;48.178;11.566;2022-07-21T00:17:06;96076.78;;;24.45;35.30
73671;BME280;61968;48.178;11.566;2022-07-21T00:19:33;96070.88;;;24.43;34.49
73671;BME280;61968;48.178;11.566;2022-07-21T00:22:00;96069.97;;;24.47;34.71
73671;BME280;61968;48.178;11.566;2022-07-21T00:24:26;96066.47;;;24.47;34.95
73671;BME280;61968;48.178;11.566;2022-07-21T00:26:53;96069.78;;;24.44;35.24
73671;BME280;61968;48.178;11.566;2022-07-21T00:29:19;96079.00;;;24.43;34.62
73671;BME280;61968;48.178;11.566;2022-07-21T00:31:47;96082.66;;;24.38;36.07
73671;BME280;61968;48.178;11.566;2022-07-21T00:34:14;96077.88;;;24.35;36.20
73671;BME280;61968;48.178;11.566;2022-07-21T00:36:40;96071.44;;;24.31;36.01
73671;BME280;61968;48.178;11.566;2022-07-21T00:39:07;96075.00;;;24.40;36.82
73671;BME280;61968;48.178;11.566;2022-07-21T00:41:33;96101.41;;;24.43;36.57
73671;BME280;61968;48.178;11.566;2022-07-21T00:44:00;96114.94;;;24.21;36.84
73671;BME280;61968;48.178;11.566;2022-07-21T00:46:27;96116.22;;;24.01;37.21
73671;BME280;61968;48.178;11.566;2022-07-21T00:48:54;96116.06;;;23.97;37.10
73671;BME280;61968;48.178;11.566;2022-07-21T00:51:21;96112.56;;;23.97;36.51
73671;BME280;61968;48.178;11.566;2022-07-21T00:53:47;96103.66;;;23.96;36.65
73671;BME280;61968;48.178;11.566;2022-07-21T00:56:14;96102.00;;;24.09;36.43
73671;BME280;61968;48.178;11.566;2022-07-21T00:58:42;96099.63;;;24.08;36.34
73671;BME280;61968;48.178;11.566;2022-07-21T01:01:09;96100.34;;;23.99;36.13
73671;BME280;61968;48.178;11.566;2022-07-21T01:03:35;96112.84;;;23.95;36.47
73671;BME280;61968;48.178;11.566;2022-07-21T01:06:04;96107.34;;;23.78;37.20
73671;BME280;61968;48.178;11.566;2022-07-21T01:08:31;96103.63;;;23.51;38.30
73671;BME280;61968;48.178;11.566;2022-07-21T01:10:57;96110.59;;;23.52;38.16
73671;BME280;61968;48.178;11.566;2022-07-21T01:13:24;96105.25;;;23.75;36.65
73671;BME280;61968;48.178;11.566;2022-07-21T01:15:51;96118.09;;;23.92;36.95
73671;BME280;61968;48.178;11.566;2022-07-21T01:18:18;96112.13;;;24.03;37.11
73671;BME280;61968;48.178;11.566;2022-07-21T01:20:52;96113.59;;;24.10;36.80
73671;BME280;61968;48.178;11.566;2022-07-21T01:23:21;96109.03;;;24.19;36.71
73671;BME280;61968;48.178;11.566;2022-07-21T01:25:48;96104.94;;;24.21;36.48
73671;BME280;61968;48.178;11.566;2022-07-21T01:28:14;96098.94;;;24.33;36.61
73671;BME280;61968;48.178;11.566;2022-07-21T01:30:41;96103.47;;;24.46;35.90
73671;BME280;61968;48.178;11.566;2022-07-21T01:33:08;96092.53;;;24.52;35.90
73671;BME280;61968;48.178;11.566;2022-07-21T01:35:34;96082.06;;;24.50;36.21
73671;BME280;61968;48.178;11.566;2022-07-21T01:38:01;96078.53;;;24.49;35.56
73671;BME280;61968;48.178;11.566;2022-07-21T01:40:29;96076.50;;;24.55;35.30
73671;BME280;61968;48.178;11.566;2022-07-21T01:43:13;96074.91;;;24.54;35.58
73671;BME280;61968;48.178;11.566;2022-07-21T01:45:40;96079.16;;;24.46;35.66
73671;BME280;61968;48.178;11.566;2022-07-21T01:48:06;96075.81;;;24.41;36.10
73671;BME280;61968;48.178;11.566;2022-07-21T01:50:33;96077.25;;;24.38;36.01
73671;BME280;61968;48.178;11.566;2022-07-21T01:53:00;96085.09;;;24.26;36.18
73671;BME280;61968;48.178;11.566;2022-07-21T01:55:26;96095.25;;;24.20;35.88
73671;BME280;61968;48.178;11.566;2022-07-21T01:57:56;96092.38;;;24.25;36.30
73671;BME280;61968;48.178;11.566;2022-07-21T02:00:23;96091.91;;;24.23;35.46
73671;BME280;61968;48.178;11.566;2022-07-21T02:02:49;96100.41;;;24.08;36.12
73671;BME280;61968;48.178;11.566;2022-07-21T02:05:16;96089.44;;;24.05;36.08
73671;BME280;61968;48.178;11.566;2022-07-21T02:07:42;96089.78;;;24.12;36.48
73671;BME280;61968;48.178;11.566;2022-07-21T02:10:09;96082.97;;;24.14;35.84
73671;BME280;61968;48.178;11.566;2022-07-21T02:12:35;96081.22;;;24.18;36.28
73671;BME280;61968;48.178;11.566;2022-07-21T02:15:04;96090.75;;;24.16;36.18
73671;BME280;61968;48.178;11.566;2022-07-21T02:17:31;96086.81;;;24.22;36.07
73671;BME280;61968;48.178;11.566;2022-07-21T02:19:57;96091.25;;;24.18;36.32
73671;BME280;61968;48.178;11.566;2022-07-21T02:22:24;96087.94;;;24.21;36.46
73671;BME280;61968;48.178;11.566;2022-07-21T02:24:50;96087.94;;;24.21;36.85
73671;BME280;61968;48.178;11.566;2022-07-21T02:27:17;96097.94;;;24.20;36.54
73671;BME280;61968;48.178;11.566;2022-07-21T02:29:43;96097.09;;;24.11;36.93
73671;BME280;61968;48.178;11.566;2022-07-21T02:32:11;96098.00;;;24.07;37.34
73671;BME280;61968;48.178;11.566;2022-07-21T02:34:37;96108.34;;;24.05;37.73
73671;BME280;61968;48.178;11.566;2022-07-21T02:37:04;96107.09;;;24.11;37.28
73671;BME280;61968;48.178;11.566;2022-07-21T02:39:30;96108.56;;;24.17;37.14
73671;BME280;61968;48.178;11.566;2022-07-21T02:41:57;96109.66;;;24.16;37.40
73671;BME280;61968;48.178;11.566;2022-07-21T02:44:24;96113.78;;;24.13;38.07
73671;BME280;61968;48.178;11.566;2022-07-21T02:46:51;96118.16;;;24.00;37.69
73671;BME280;61968;48.178;11.566;2022-07-21T02:49:18;96113.84;;;23.99;37.66
73671;BME280;61968;48.178;11.566;2022-07-21T02:51:45;96117.22;;;24.05;38.13
73671;BME280;61968;48.178;11.566;2022-07-21T02:54:11;96111.84;;;24.05;38.21
73671;BME280;61968;48.178;11.566;2022-07-21T02:56:38;96102.31;;;24.08;37.36
73671;BME280;61968;48.178;11.566;2022-07-21T02:59:05;96096.91;;;24.08;37.71
73671;BME280;61968;48.178;11.566;2022-07-21T03:01:31;96101.03;;;24.05;37.87
73671;BME280;61968;48.178;11.566;2022-07-21T03:03:58;96096.66;;;23.95;38.03
73671;BME280;61968;48.178;11.566;2022-07-21T03:06:26;96097.47;;;23.96;38.06
73671;BME280;61968;48.178;11.566;2022-07-21T03:08:52;96093.34;;;23.98;37.98
73671;BME280;61968;48.178;11.566;2022-07-21T03:11:19;96099.97;;;23.92;37.72
73671;BME280;61968;48.178;11.566;2022-07-21T03:13:45;96100.28;;;23.91;38.44
73671;BME280;61968;48.178;11.566;2022-07-21T03:16:12;96100.22;;;23.82;38.72
73671;BME280;61968;48.178;11.566;2022-07-21T03:18:38;96102.16;;;23.68;38.93
73671;BME280;61968;48.178;11.566;2022-07-21T03:21:06;96103.78;;;23.32;39.76
73671;BME280;61968;48.178;11.566;2022-07-21T03:23:34;96097.25;;;23.47;38.75
73671;BME280;61968;48.178;11.566;2022-07-21T03:26:01;96094.91;;;23.54;39.17
73671;BME280;61968;48.178;11.566;2022-07-21T03:28:27;96097.44;;;23.51;39.14
73671;BME280;61968;48.178;11.566;2022-07-21T03:30:53;96098.84;;;23.48;39.48
73671;BME280;61968;48.178;11.566;2022-07-21T03:33:20;96101.03;;;23.46;39.58
73671;BME280;61968;48.178;11.566;2022-07-21T03:35:47;96100.16;;;23.37;39.26
73671;BME280;61968;48.178;11.566;2022-07-21T03:38:13;96090.72;;;23.48;39.19
73671;BME280;61968;48.178;11.566;2022-07-21T03:40:41;96090.13;;;23.51;39.25
73671;BME280;61968;48.178;11.566;2022-07-21T03:43:08;96095.69;;;23.32;39.60
73671;BME280;61968;48.178;11.566;2022-07-21T03:45:35;96088.88;;;23.35;38.89
73671;BME280;61968;48.178;11.566;2022-07-21T03:48:04;96089.44;;;23.46;39.18
73671;BME280;61968;48.178;11.566;2022-07-21T03:50:31;96089.34;;;23.37;39.45
73671;BME280;61968;48.178;11.566;2022-07-21T03:52:58;96097.97;;;23.39;39.64
73671;BME280;61968;48.178;11.566;2022-07-21T03:55:25;96128.94;;;23.28;39.69
73671;BME280;61968;48.178;11.566;2022-07-21T03:57:55;96136.13;;;23.19;39.95
73671;BME280;61968;48.178;11.566;2022-07-21T04:00:24;96127.06;;;23.15;39.86
73671;BME280;61968;48.178;11.566;2022-07-21T04:02:51;96138.44;;;23.11;40.31
73671;BME280;61968;48.178;11.566;2022-07-21T04:05:18;96137.47;;;23.21;39.61
73671;BME280;61968;48.178;11.566;2022-07-21T04:07:47;96139.47;;;23.29;39.49
73671;BME280;61968;48.178;11.566;2022-07-21T04:10:16;96147.03;;;23.27;39.94
73671;BME280;61968;48.178;11.566;2022-07-21T04:12:43;96141.22;;;23.34;39.32
73671;BME280;61968;48.178;11.566;2022-07-21T04:15:12;96132.94;;;23.30;39.48
73671;BME280;61968;48.178;11.566;2022-07-21T04:17:39;96138.84;;;23.32;39.02
73671;BME280;61968;48.178;11.566;2022-07-21T04:20:07;96142.94;;;23.30;39.21
73671;BME280;61968;48.178;11.566;2022-07-21T04:22:34;96142.13;;;23.16;40.25
73671;BME280;61968;48.178;11.566;2022-07-21T04:25:01;96145.25;;;23.09;40.29
73671;BME280;61968;48.178;11.566;2022-07-21T04:27:27;96151.72;;;22.94;40.37
73671;BME280;61968;48.178;11.566;2022-07-21T04:29:54;96152.03;;;22.79;40.54
73671;BME280;61968;48.178;11.566;2022-07-21T04:32:21;96154.03;;;22.87;40.52
73671;BME280;61968;48.178;11.566;2022-07-21T04:34:48;96150.25;;;22.88;39.98
73671;BME280;61968;48.178;11.566;2022-07-21T04:37:15;96160.63;;;22.81;40.37
73671;BME280;61968;48.178;11.566;2022-07-21T04:39:41;96163.81;;;22.83;40.27
73671;BME280;61968;48.178;11.566;2022-07-21T04:42:08;96165.50;;;22.79;40.55
73671;BME280;61968;48.178;11.566;2022-07-21T04:44:34;96167.72;;;22.90;39.95
73671;BME280;61968;48.178;11.566;2022-07-21T04:47:01;96173.00;;;22.82;40.36
73671;BME280;61968;48.178;11.566;2022-07-21T04:49:29;96179.22;;;22.96;40.00
73671;BME280;61968;48.178;11.566;2022-07-21T04:51:55;96175.59;;;23.01;39.51
73671;BME280;61968;48.178;11.566;2022-07-21T04:54:22;96179.81;;;22.93;39.86
73671;BME280;61968;48.178;11.566;2022-07-21T04:56:48;96188.59;;;22.99;39.51
73671;BME280;61968;48.178;11.566;2022-07-21T04:59:15;96188.38;;;22.95;39.39
73671;BME280;61968;48.178;11.566;2022-07-21T05:01:41;96187.09;;;22.93;39.73
73671;BME280;61968;48.178;11.566;2022-07-21T05:04:08;96194.47;;;22.87;39.89
73671;BME280;61968;48.178;11.566;2022-07-21T05:06:36;96195.28;;;23.01;39.04
73671;BME280;61968;48.178;11.566;2022-07-21T05:09:02;96192.19;;;23.08;39.32
73671;BME280;61968;48.178;11.566;2022-07-21T05:11:29;96202.97;;;23.08;39.59
73671;BME280;61968;48.178;11.566;2022-07-21T05:13:56;96200.28;;;22.94;39.79
73671;BME280;61968;48.178;11.566;2022-07-21T05:16:22;96210.06;;;22.90;40.05
73671;BME280;61968;48.178;11.566;2022-07-21T05:18:49;96216.56;;;23.03;39.37
73671;BME280;61968;48.178;11.566;2022-07-21T05:21:16;96207.56;;;22.94;39.83
73671;BME280;61968;48.178;11.566;2022-07-21T05:23:44;96203.59;;;23.05;39.88
73671;BME280;61968;48.178;11.566;2022-07-21T05:26:11;96222.66;;;23.08;39.83
73671;BME280;61968;48.178;11.566;2022-07-21T05:28:38;96227.28;;;23.22;39.35
73671;BME280;61968;48.178;11.566;2022-07-21T05:31:05;96223.97;;;23.25;38.92
73671;BME280;61968;48.178;11.566;2022-07-21T05:33:31;96232.22;;;22.54;40.44
73671;BME280;61968;48.178;11.566;2022-07-21T05:35:58;96226.91;;;22.82;39.99
73671;BME280;61968;48.178;11.566;2022-07-21T05:38:25;96230.84;;;23.03;39.69
73671;BME280;61968;48.178;11.566;2022-07-21T05:40:52;96229.72;;;23.04;39.68
73671;BME280;61968;48.178;11.566;2022-07-21T05:43:19;96222.84;;;23.12;39.74
73671;BME280;61968;48.178;11.566;2022-07-21T05:45:45;96231.03;;;23.07;40.31
73671;BME280;61968;48.178;11.566;2022-07-21T05:48:12;96229.63;;;22.82;40.03
73671;BME280;61968;48.178;11.566;2022-07-21T05:50:39;96230.63;;;23.00;39.83
73671;BME280;61968;48.178;11.566;2022-07-21T05:53:06;96232.34;;;23.09;40.06
73671;BME280;61968;48.178;11.566;2022-07-21T05:55:32;96231.53;;;23.09;39.82
73671;BME280;61968;48.178;11.566;2022-07-21T05:58:00;96229.63;;;22.82;40.51
73671;BME280;61968;48.178;11.566;2022-07-21T06:00:26;96235.72;;;23.01;39.70
73671;BME280;61968;48.178;11.566;2022-07-21T06:02:53;96236.84;;;23.14;39.51
73671;BME280;61968;48.178;11.566;2022-07-21T06:05:20;96238.41;;;23.01;40.07
73671;BME280;61968;48.178;11.566;2022-07-21T06:07:47;96244.00;;;22.58;41.63
73671;BME280;61968;48.178;11.566;2022-07-21T06:10:14;96234.13;;;22.02;42.49
73671;BME280;61968;48.178;11.566;2022-07-21T06:12:41;96239.38;;;22.45;41.01
73671;BME280;61968;48.178;11.566;2022-07-21T06:15:10;96244.09;;;22.20;42.10
73671;BME280;61968;48.178;11.566;2022-07-21T06:17:40;96253.59;;;22.13;42.48
73671;BME280;61968;48.178;11.566;2022-07-21T06:20:08;96246.31;;;22.13;42.61
73671;BME280;61968;48.178;11.566;2022-07-21T06:22:36;96248.53;;;22.44;41.70
73671;BME280;61968;48.178;11.566;2022-07-21T06:25:03;96254.56;;;22.55;41.26
73671;BME280;61968;48.178;11.566;2022-07-21T06:27:30;96255.75;;;22.49;41.70
73671;BME280;61968;48.178;11.566;2022-07-21T06:29:58;96257.63;;;22.15;42.46
73671;BME280;61968;48.178;11.566;2022-07-21T06:32:26;96257.19;;;21.65;43.73
73671;BME280;61968;48.178;11.566;2022-07-21T06:34:52;96261.03;;;21.59;44.03
73671;BME280;61968;48.178;11.566;2022-07-21T06:37:19;96264.19;;;21.66;43.77
73671;BME280;61968;48.178;11.566;2022-07-21T06:39:46;96267.84;;;21.75;43.68
73671;BME280;61968;48.178;11.566;2022-07-21T06:42:13;96265.19;;;21.70;43.54
73671;BME280;61968;48.178;11.566;2022-07-21T06:44:39;96270.47;;;21.81;43.74
73671;BME280;61968;48.178;11.566;2022-07-21T06:47:06;96272.59;;;21.84;43.91
73671;BME280;61968;48.178;11.566;2022-07-21T06:49:34;96270.69;;;21.84;43.78
73671;BME280;61968;48.178;11.566;2022-07-21T06:52:00;96283.19;;;21.94;43.49
73671;BME280;61968;48.178;11.566;2022-07-21T06:54:27;96284.13;;;22.08;43.00
73671;BME280;61968;48.178;11.566;2022-07-21T06:56:54;96280.34;;;21.85;44.42
73671;BME280;61968;48.178;11.566;2022-07-21T06:59:20;96284.06;;;21.46;45.16
73671;BME280;61968;48.178;11.566;2022-07-21T07:01:47;96282.06;;;21.57;44.52
73671;BME280;61968;48.178;11.566;2022-07-21T07:04:13;96271.78;;;21.59;45.21
73671;BME280;61968;48.178;11.566;2022-07-21T07:06:41;96275.31;;;21.60;45.22
73671;BME280;61968;48.178;11.566;2022-07-21T07:09:08;96282.75;;;21.44;45.47
73671;BME280;61968;48.178;11.566;2022-07-21T07:11:34;96281.53;;;21.31;45.45
73671;BME280;61968;48.178;11.566;2022-07-21T07:14:01;96279.88;;;21.11;46.05
73671;BME280;61968;48.178;11.566;2022-07-21T07:16:27;96283.84;;;20.50;47.25
73671;BME280;61968;48.178;11.566;2022-07-21T07:18:55;96285.25;;;20.48;47.59
73671;BME280;61968;48.178;11.566;2022-07-21T07:21:21;96285.88;;;20.69;46.71
73671;BME280;61968;48.178;11.566;2022-07-21T07:23:49;96285.50;;;21.09;45.36
73671;BME280;61968;48.178;11.566;2022-07-21T07:26:16;96288.53;;;21.03;45.56
73671;BME280;61968;48.178;11.566;2022-07-21T07:28:42;96282.66;;;20.67;46.20
73671;BME280;61968;48.178;11.566;2022-07-21T07:31:09;96299.38;;;20.19;47.63
73671;BME280;61968;48.178;11.566;2022-07-21T07:33:35;96291.63;;;20.52;47.08
73671;BME280;61968;48.178;11.566;2022-07-21T07:36:04;96292.78;;;21.09;45.33
73671;BME280;61968;48.178;11.566;2022-07-21T07:38:30;96291.31;;;20.93;45.33
73671;BME280;61968;48.178;11.566;2022-07-21T07:40:58;96300.28;;;21.12;45.00
73671;BME280;61968;48.178;11.566;2022-07-21T07:43:25;96292.72;;;21.38;44.58
73671;BME280;61968;48.178;11.566;2022-07-21T07:45:52;96298.97;;;21.82;43.58
73671;BME280;61968;48.178;11.566;2022-07-21T07:48:18;96294.22;;;22.16;42.96
73671;BME280;61968;48.178;11.566;2022-07-21T07:50:45;96296.56;;;22.23;42.59
73671;BME280;61968;48.178;11.566;2022-07-21T07:53:11;96300.34;;;22.22;42.36
73671;BME280;61968;48.178;11.566;2022-07-21T07:55:37;96305.81;;;22.36;42.11
73671;BME280;61968;48.178;11.566;2022-07-21T07:58:05;96303.75;;;22.47;41.93
73671;BME280;61968;48.178;11.566;2022-07-21T08:00:32;96299.28;;;22.56;41.36
73671;BME280;61968;48.178;11.566;2022-07-21T08:02:58;96306.53;;;21.98;42.55
73671;BME280;61968;48.178;11.566;2022-07-21T08:05:25;96300.03;;;22.05;42.64
73671;BME280;61968;48.178;11.566;2022-07-21T08:07:51;96299.13;;;22.14;42.42
73671;BME280;61968;48.178;11.566;2022-07-21T08:10:18;96304.50;;;22.33;42.07
73671;BME280;61968;48.178;11.566;2022-07-21T08:12:44;96303.00;;;22.41;41.74
73671;BME280;61968;48.178;11.566;2022-07-21T08:15:12;96308.97;;;22.00;42.60
73671;BME280;61968;48.178;11.566;2022-07-21T08:17:40;96306.72;;;22.07;42.42
73671;BME280;61968;48.178;11.566;2022-07-21T08:20:08;96305.69;;;22.41;41.27
73671;BME280;61968;48.178;11.566;2022-07-21T08:22:34;96306.47;;;22.65;41.33
73671;BME280;61968;48.178;11.566;2022-07-21T08:25:01;96310.72;;;22.29;41.66
73671;BME280;61968;48.178;11.566;2022-07-21T08:27:28;96305.88;;;22.31;41.79
73671;BME280;61968;48.178;11.566;2022-07-21T08:29:54;96305.00;;;22.35;41.78
73671;BME280;61968;48.178;11.566;2022-07-21T08:32:22;96302.28;;;22.54;41.58
73671;BME280;61968;48.178;11.566;2022-07-21T08:34:49;96303.16;;;22.69;40.96
73671;BME280;61968;48.178;11.566;2022-07-21T08:37:15;96305.94;;;22.63;41.48
73671;BME280;61968;48.178;11.566;2022-07-21T08:39:42;96308.97;;;22.76;41.45
73671;BME280;61968;48.178;11.566;2022-07-21T08:42:10;96308.66;;;22.77;41.22
73671;BME280;61968;48.178;11.566;2022-07-21T08:44:37;96306.16;;;22.67;41.50
73671;BME280;61968;48.178;11.566;2022-07-21T08:47:04;96309.50;;;22.78;41.07
73671;BME280;61968;48.178;11.566;2022-07-21T08:49:33;96311.66;;;22.76;41.69
73671;BME280;61968;48.178;11.566;2022-07-21T08:52:00;96314.38;;;22.76;41.28
73671;BME280;61968;48.178;11.566;2022-07-21T08:54:27;96308.31;;;22.84;41.63
73671;BME280;61968;48.178;11.566;2022-07-21T08:56:54;96310.81;;;22.94;41.04
73671;BME280;61968;48.178;11.566;2022-07-21T08:59:20;96320.44;;;23.00;40.79
73671;BME280;61968;48.178;11.566;2022-07-21T09:01:48;96318.44;;;23.06;40.48
73671;BME280;61968;48.178;11.566;2022-07-21T09:04:20;96326.22;;;23.07;40.38
73671;BME280;61968;48.178;11.566;2022-07-21T09:06:52;96325.75;;;23.05;40.43
73671;BME280;61968;48.178;11.566;2022-07-21T09:09:19;96321.81;;;22.98;40.46
73671;BME280;61968;48.178;11.566;2022-07-21T09:11:46;96325.38;;;22.60;40.80
73671;BME280;61968;48.178;11.566;2022-07-21T09:14:15;96323.69;;;22.64;40.93
73671;BME280;61968;48.178;11.566;2022-07-21T09:16:45;96324.25;;;22.80;40.79
73671;BME280;61968;48.178;11.566;2022-07-21T09:19:17;96327.97;;;22.84;40.70
73671;BME280;61968;48.178;11.566;2022-07-21T09:21:44;96322.72;;;22.74;40.80
73671;BME280;61968;48.178;11.566;2022-07-21T09:24:13;96324.75;;;22.69;41.03
73671;BME280;61968;48.178;11.566;2022-07-21T09:27:01;96320.63;;;22.52;41.03
73671;BME280;61968;48.178;11.566;2022-07-21T09:29:34;96321.28;;;22.44;41.19
73671;BME280;61968;48.178;11.566;2022-07-21T09:32:16;96325.03;;;22.29;41.43
73671;BME280;61968;48.178;11.566;2022-07-21T09:34:43;96320.72;;;22.28;41.03
73671;BME280;61968;48.178;11.566;2022-07-21T09:37:10;96322.63;;;22.28;41.38
73671;BME280;61968;48.178;11.566;2022-07-21T09:39:46;96324.56;;;22.22;41.20
73671;BME280;61968;48.178;11.566;2022-07-21T09:42:19;96319.28;;;22.36;40.78
73671;BME280;61968;48.178;11.566;2022-07-21T09:44:48;96332.44;;;22.37;40.78
73671;BME280;61968;48.178;11.566;2022-07-21T09:47:16;96331.28;;;22.25;41.08
73671;BME280;61968;48.178;11.566;2022-07-21T09:49:43;96332.16;;;22.20;41.42
73671;BME280;61968;48.178;11.566;2022-07-21T09:52:26;96334.47;;;22.08;42.00
73671;BME280;61968;48.178;11.566;2022-07-21T09:54:56;96334.47;;;22.08;41.77
73671;BME280;61968;48.178;11.566;2022-07-21T09:57:22;96338.34;;;22.20;41.07
73671;BME280;61968;48.178;11.566;2022-07-21T09:59:50;96332.81;;;22.12;41.52
73671;BME280;61968;48.178;11.566;2022-07-21T10:02:19;96335.19;;;22.13;41.15
73671;BME280;61968;48.178;11.566;2022-07-21T10:04:51;96347.31;;;21.68;42.21
73671;BME280;61968;48.178;11.566;2022-07-21T10:07:18;96358.38;;;21.37;43.73
73671;BME280;61968;48.178;11.566;2022-07-21T10:09:45;96349.75;;;21.40;44.02
73671;BME280;61968;48.178;11.566;2022-07-21T10:12:13;96347.13;;;21.59;43.40
73671;BME280;61968;48.178;11.566;2022-07-21T10:14:40;96354.97;;;21.80;44.12
73671;BME280;61968;48.178;11.566;2022-07-21T10:17:07;96359.34;;;21.75;44.59
73671;BME280;61968;48.178;11.566;2022-07-21T10:19:39;96359.28;;;21.81;44.11
73671;BME280;61968;48.178;11.566;2022-07-21T10:22:18;96357.09;;;21.83;44.70
73671;BME280;61968;48.178;11.566;2022-07-21T10:24:47;96355.00;;;21.98;44.45
73671;BME280;61968;48.178;11.566;2022-07-21T10:27:15;96356.41;;;21.96;44.50
73671;BME280;61968;48.178;11.566;2022-07-21T10:29:58;96348.59;;;21.75;44.63
73671;BME280;61968;48.178;11.566;2022-07-21T10:32:29;96356.66;;;21.75;44.57
73671;BME280;61968;48.178;11.566;2022-07-21T10:34:57;96355.19;;;21.83;45.02
73671;BME280;61968;48.178;11.566;2022-07-21T10:37:46;96355.72;;;21.85;44.12
73671;BME280;61968;48.178;11.566;2022-07-21T10:40:36;96361.06;;;21.90;45.13
73671;BME280;61968;48.178;11.566;2022-07-21T10:43:38;96357.22;;;21.72;45.00
73671;BME280;61968;48.178;11.566;2022-07-21T10:46:33;96363.56;;;21.82;44.92
73671;BME280;61968;48.178;11.566;2022-07-21T10:49:02;96351.88;;;21.91;44.25
73671;BME280;61968;48.178;11.566;2022-07-21T10:51:32;96357.00;;;21.93;44.21
73671;BME280;61968;48.178;11.566;2022-07-21T10:54:18;96349.63;;;21.98;44.26
73671;BME280;61968;48.178;11.566;2022-07-21T10:56:45;96345.22;;;22.08;44.37
73671;BME280;61968;48.178;11.566;2022-07-21T10:59:13;96352.72;;;22.11;44.31
73671;BME280;61968;48.178;11.566;2022-07-21T11:01:40;96352.16;;;22.14;44.31
73671;BME280;61968;48.178;11.566;2022-07-21T11:04:08;96354.03;;;22.13;43.96
73671;BME280;61968;48.178;11.566;2022-07-21T11:06:36;96345.97;;;22.13;44.02
73671;BME280;61968;48.178;11.566;2022-07-21T11:09:20;96351.34;;;22.13;43.61
73671;BME280;61968;48.178;11.566;2022-07-21T11:12:05;96360.31;;;22.09;44.30
73671;BME280;61968;48.178;11.566;2022-07-21T11:14:39;96357.09;;;22.07;44.41
73671;BME280;61968;48.178;11.566;2022-07-21T11:17:07;96355.78;;;22.04;44.50
73671;BME280;61968;48.178;11.566;2022-07-21T11:19:51;96347.44;;;22.06;44.54
73671;BME280;61968;48.178;11.566;2022-07-21T11:22:20;96348.25;;;22.01;43.99
73671;BME280;61968;48.178;11.566;2022-07-21T11:24:50;96354.47;;;22.02;43.91
73671;BME280;61968;48.178;11.566;2022-07-21T11:27:19;96354.72;;;22.05;43.74
73671;BME280;61968;48.178;11.566;2022-07-21T11:29:49;96344.75;;;22.00;43.78
73671;BME280;61968;48.178;11.566;2022-07-21T11:32:16;96347.25;;;21.97;43.19
73671;BME280;61968;48.178;11.566;2022-07-21T11:34:46;96349.34;;;22.00;43.40
73671;BME280;61968;48.178;11.566;2022-07-21T11:37:14;96341.97;;;22.11;43.38
73671;BME280;61968;48.178;11.566;2022-07-21T11:39:41;96338.56;;;22.05;43.52
73671;BME280;61968;48.178;11.566;2022-07-21T11:42:09;96337.97;;;22.08;43.55
73671;BME280;61968;48.178;11.566;2022-07-21T11:44:37;96333.28;;;22.14;43.17
73671;BME280;61968;48.178;11.566;2022-07-21T11:47:06;96334.69;;;22.11;43.18
73671;BME280;61968;48.178;11.566;2022-07-21T11:49:35;96335.94;;;22.19;42.65
73671;BME280;61968;48.178;11.566;2022-07-21T11:52:04;96335.50;;;22.12;42.69
73671;BME280;61968;48.178;11.566;2022-07-21T11:54:35;96326.09;;;22.09;42.56
73671;BME280;61968;48.178;11.566;2022-07-21T11:57:03;96326.31;;;22.13;42.54
73671;BME280;61968;48.178;11.566;2022-07-21T11:59:30;96330.06;;;22.17;42.66
73671;BME280;61968;48.178;11.566;2022-07-21T12:02:00;96326.63;;;22.11;42.78
73671;BME280;61968;48.178;11.566;2022-07-21T12:04:37;96326.53;;;22.16;42.74
73671;BME280;61968;48.178;11.566;2022-07-21T12:07:09;96323.34;;;22.14;42.84
73671;BME280;61968;48.178;11.566;2022-07-21T12:09:37;96330.84;;;22.17;42.54
73671;BME280;61968;48.178;11.566;2022-07-21T12:12:05;96322.41;;;22.05;42.98
73671;BME280;61968;48.178;11.566;2022-07-21T12:14:45;96320.78;;;22.04;42.98
73671;BME280;61968;48.178;11.566;2022-07-21T12:17:13;96330.50;;;22.00;43.20
73671;BME280;61968;48.178;11.566;2022-07-21T12:19:41;96325.41;;;21.98;43.21
73671;BME280;61968;48.178;11.566;2022-07-21T12:22:08;96326.72;;;22.01;42.61
73671;BME280;61968;48.178;11.566;2022-07-21T12:24:49;96321.47;;;21.91;42.85
73671;BME280;61968;48.178;11.566;2022-07-21T12:27:16;96323.00;;;21.54;43.40
73671;BME280;61968;48.178;11.566;2022-07-21T12:29:43;96326.66;;;21.63;42.90
73671;BME280;61968;48.178;11.566;2022-07-21T12:32:10;96327.50;;;21.83;42.39
73671;BME280;61968;48.178;11.566;2022-07-21T12:34:48;96330.47;;;21.81;42.90
73671;BME280;61968;48.178;11.566;2022-07-21T12:37:16;96317.03;;;22.00;42.44
73671;BME280;61968;48.178;11.566;2022-07-21T12:39:43;96314.03;;;22.07;42.12
73671;BME280;61968;48.178;11.566;2022-07-21T12:42:30;96318.16;;;21.99;42.50
73671;BME280;61968;48.178;11.566;2022-07-21T12:44:57;96317.22;;;22.09;41.76
73671;BME280;61968;48.178;11.566;2022-07-21T12:47:25;96315.28;;;22.14;41.94
73671;BME280;61968;48.178;11.566;2022-07-21T12:49:58;96306.09;;;22.15;41.80
73671;BME280;61968;48.178;11.566;2022-07-21T12:52:25;96302.66;;;22.29;41.43
73671;BME280;61968;48.178;11.566;2022-07-21T12:54:52;96295.03;;;22.36;41.36
73671;BME280;61968;48.178;11.566;2022-07-21T12:57:19;96299.53;;;22.40;40.79